Time;durP1;ratioP1;P1;durP2;ratioP2;P2;SDS_P1;SDS_P2;PMS_P1;PMS_P2;Temp;Humidity;BMP_temperature;BMP_pressure;BME280_temperature;BME280_humidity;BME280_pressure;Samples;Min_cycle;Max_cycle;Signal;HPM_P1;HPM_P2
2023/10/25 00:01:35;;;;;;;1.10;1.10;;;10.80;99.90;;;;;;5022305;28;20136;-88
2023/10/25 00:04:01;;;;;;;1.20;1.20;;;11.00;99.90;;;;;;5012124;28;20569;-93
2023/10/25 00:06:28;;;;;;;1.10;1.10;;;10.80;99.90;;;;;;5032414;28;20053;-92
2023/10/25 00:08:54;;;;;;;1.17;1.17;;;10.90;99.90;;;;;;5008091;28;20114;-89
2023/10/25 00:11:20;;;;;;;1.20;1.20;;;10.70;99.90;;;;;;5013156;28;20092;-90
2023/10/25 00:13:45;;;;;;;1.45;1.45;;;10.70;99.90;;;;;;5043326;28;20098;-87
2023/10/25 00:16:13;;;;;;;1.20;1.20;;;10.80;99.90;;;;;;5032298;28;20038;-90
2023/10/25 00:18:39;;;;;;;1.00;1.00;;;10.80;99.90;;;;;;5026903;28;20069;-94
2023/10/25 00:21:05;;;;;;;1.27;1.27;;;10.80;99.90;;;;;;5051444;28;20080;-91
2023/10/25 00:23:31;;;;;;;1.20;1.20;;;10.60;99.90;;;;;;5011579;28;20041;-90
2023/10/25 00:26:00;;;;;;;1.05;1.05;;;10.90;99.90;;;;;;5014490;28;20068;-93
2023/10/25 00:28:26;;;;;;;1.23;1.23;;;10.80;99.90;;;;;;5005974;28;20186;-91
2023/10/25 00:30:51;;;;;;;1.30;1.30;;;10.70;99.90;;;;;;5008630;28;20566;-92
2023/10/25 00:33:17;;;;;;;1.20;1.20;;;10.80;99.90;;;;;;5005781;28;20049;-91
2023/10/25 00:35:43;;;;;;;1.33;1.33;;;10.70;99.90;;;;;;5032307;28;20098;-94
2023/10/25 00:38:09;;;;;;;1.30;1.30;;;10.70;99.90;;;;;;5012124;28;20048;-94
2023/10/25 00:40:34;;;;;;;1.10;1.10;;;10.70;99.90;;;;;;5008478;28;20053;-93
2023/10/25 00:43:19;;;;;;;1.17;1.17;;;10.80;99.90;;;;;;5028249;28;20085;-94
2023/10/25 00:46:14;;;;;;;1.23;1.23;;;10.60;99.90;;;;;;5024508;28;20057;-91
2023/10/25 00:48:45;;;;;;;1.20;1.20;;;10.70;99.90;;;;;;5018944;28;20042;-90
2023/10/25 00:51:13;;;;;;;1.20;1.20;;;10.60;99.90;;;;;;5029799;28;20048;-86
2023/10/25 00:53:42;;;;;;;1.30;1.30;;;10.60;99.90;;;;;;5029945;28;20048;-92
2023/10/25 00:56:10;;;;;;;1.40;1.40;;;10.70;99.90;;;;;;5027001;28;20037;-93
2023/10/25 00:58:38;;;;;;;1.17;1.17;;;10.60;99.90;;;;;;5012671;28;20713;-93
2023/10/25 01:01:05;;;;;;;1.35;1.35;;;10.70;99.90;;;;;;5028624;28;20084;-93
2023/10/25 01:03:38;;;;;;;1.35;1.35;;;10.70;99.90;;;;;;5028919;28;20049;-92
2023/10/25 01:06:04;;;;;;;1.40;1.38;;;10.70;99.90;;;;;;5018714;28;20103;-90
2023/10/25 01:08:30;;;;;;;1.38;1.35;;;10.50;99.90;;;;;;5016595;28;20049;-91
2023/10/25 01:10:58;;;;;;;1.35;1.35;;;10.50;99.90;;;;;;5016316;28;20127;-92
2023/10/25 01:13:24;;;;;;;1.23;1.23;;;10.60;99.90;;;;;;5030361;28;20102;-93
2023/10/25 01:15:49;;;;;;;1.10;1.10;;;10.50;99.90;;;;;;5029771;28;20037;-90
2023/10/25 01:18:15;;;;;;;1.30;1.30;;;10.40;99.90;;;;;;5017500;28;20048;-90
2023/10/25 01:20:43;;;;;;;1.40;1.38;;;10.40;99.90;;;;;;5045453;28;20076;-95
2023/10/25 01:23:17;;;;;;;1.10;1.10;;;10.60;99.90;;;;;;5018177;28;20041;-91
2023/10/25 01:25:43;;;;;;;1.27;1.27;;;10.40;99.90;;;;;;5055169;28;20048;-94
2023/10/25 01:28:12;;;;;;;1.30;1.30;;;10.40;99.90;;;;;;5022368;28;20041;-93
2023/10/25 01:30:43;;;;;;;1.20;1.20;;;10.60;99.90;;;;;;5026409;28;20049;-95
2023/10/25 01:33:12;;;;;;;1.20;1.20;;;10.60;99.90;;;;;;5019531;28;20045;-94
2023/10/25 01:35:38;;;;;;;1.33;1.33;;;10.60;99.90;;;;;;5020711;28;20079;-90
2023/10/25 01:38:04;;;;;;;1.20;1.20;;;10.40;99.90;;;;;;5024500;28;20045;-92
2023/10/25 01:40:30;;;;;;;1.33;1.33;;;10.40;99.90;;;;;;5037306;28;20165;-95
2023/10/25 01:42:56;;;;;;;1.20;1.20;;;10.60;99.90;;;;;;5025228;28;20052;-88
2023/10/25 01:45:26;;;;;;;1.10;1.10;;;10.50;99.90;;;;;;5038564;28;20088;-94
2023/10/25 01:47:53;;;;;;;1.27;1.27;;;10.50;99.90;;;;;;5026519;28;20040;-91
2023/10/25 01:50:24;;;;;;;1.27;1.27;;;10.50;99.90;;;;;;5039971;28;20098;-89
2023/10/25 01:52:50;;;;;;;1.30;1.30;;;10.30;99.90;;;;;;5017659;28;20053;-88
2023/10/25 01:55:16;;;;;;;1.55;1.45;;;10.30;99.90;;;;;;5021751;28;20037;-89
2023/10/25 01:57:43;;;;;;;1.30;1.30;;;10.30;99.90;;;;;;5033668;28;20127;-89
2023/10/25 02:00:13;;;;;;;1.27;1.27;;;10.50;99.90;;;;;;5069122;28;20051;-94
2023/10/25 02:02:39;;;;;;;2.22;2.13;;;10.30;99.90;;;;;;5015273;28;20055;-89
2023/10/25 02:05:05;;;;;;;1.45;1.42;;;10.30;99.90;;;;;;5062170;28;20052;-90
2023/10/25 02:07:31;;;;;;;1.25;1.25;;;10.30;99.90;;;;;;5025129;28;20049;-92
2023/10/25 02:09:59;;;;;;;1.48;1.40;;;10.20;99.90;;;;;;5038961;28;20132;-94
2023/10/25 02:12:25;;;;;;;1.20;1.20;;;10.30;99.90;;;;;;5041982;28;20052;-88
2023/10/25 02:14:52;;;;;;;1.23;1.23;;;10.20;99.90;;;;;;5038447;28;20048;-94
2023/10/25 02:17:20;;;;;;;1.27;1.27;;;10.20;99.90;;;;;;5018346;28;20602;-90
2023/10/25 02:19:51;;;;;;;1.20;1.20;;;10.40;99.90;;;;;;5025559;28;20045;-91
2023/10/25 02:22:17;;;;;;;1.45;1.40;;;10.30;99.90;;;;;;5023258;28;20067;-89
2023/10/25 02:24:43;;;;;;;1.20;1.20;;;10.10;99.90;;;;;;5021810;28;20782;-93
2023/10/25 02:27:09;;;;;;;1.30;1.30;;;10.20;99.90;;;;;;5028456;28;20036;-89
2023/10/25 02:29:34;;;;;;;1.45;1.40;;;10.30;99.90;;;;;;5054327;28;20099;-91
2023/10/25 02:32:06;;;;;;;1.70;1.60;;;10.20;99.90;;;;;;5029201;28;20047;-93
2023/10/25 02:34:32;;;;;;;1.30;1.30;;;10.20;99.90;;;;;;5040220;28;20131;-90
2023/10/25 02:37:10;;;;;;;1.60;1.50;;;10.10;99.90;;;;;;5024358;28;20123;-93
2023/10/25 02:39:37;;;;;;;1.35;1.35;;;10.10;99.90;;;;;;5022155;28;20052;-94
2023/10/25 02:42:06;;;;;;;1.60;1.50;;;10.10;99.90;;;;;;5018952;28;20851;-94
2023/10/25 02:44:32;;;;;;;1.50;1.40;;;10.20;99.90;;;;;;5009282;28;20055;-91
2023/10/25 02:47:03;;;;;;;1.50;1.40;;;9.90;99.90;;;;;;5045231;28;20049;-93
2023/10/25 02:49:29;;;;;;;1.30;1.30;;;10.10;99.90;;;;;;5071539;28;20072;-93
2023/10/25 02:52:03;;;;;;;1.20;1.20;;;9.90;99.90;;;;;;5038285;28;20087;-91
2023/10/25 02:54:33;;;;;;;1.30;1.30;;;10.00;99.90;;;;;;5021327;28;20448;-90
2023/10/25 02:56:59;;;;;;;1.30;1.30;;;10.10;99.90;;;;;;5028203;28;20044;-91
2023/10/25 02:59:25;;;;;;;1.40;1.40;;;9.80;99.90;;;;;;5054736;28;20125;-95
2023/10/25 03:01:51;;;;;;;1.30;1.30;;;10.00;99.90;;;;;;5046898;28;20037;-93
2023/10/25 03:04:16;;;;;;;1.20;1.20;;;9.90;99.90;;;;;;5027728;28;20094;-90
2023/10/25 03:06:56;;;;;;;1.23;1.23;;;9.90;99.90;;;;;;5040390;28;20106;-92
2023/10/25 03:09:22;;;;;;;1.30;1.30;;;10.00;99.90;;;;;;5029073;28;20036;-91
2023/10/25 03:11:54;;;;;;;1.33;1.33;;;9.90;99.90;;;;;;5024153;28;20072;-96
2023/10/25 03:14:20;;;;;;;1.33;1.33;;;10.00;99.90;;;;;;5049827;28;20053;-93
2023/10/25 03:16:46;;;;;;;1.20;1.20;;;9.80;99.90;;;;;;5037265;28;20552;-92
2023/10/25 03:19:12;;;;;;;1.30;1.30;;;9.70;99.90;;;;;;5023720;28;20037;-91
2023/10/25 03:21:46;;;;;;;1.23;1.23;;;9.90;99.90;;;;;;5071345;28;20102;-94
2023/10/25 03:24:12;;;;;;;1.40;1.38;;;9.60;99.90;;;;;;5018479;28;20048;-93
2023/10/25 03:26:38;;;;;;;1.20;1.20;;;9.60;99.90;;;;;;5017604;28;20063;-90
2023/10/25 03:29:04;;;;;;;1.40;1.38;;;9.70;99.90;;;;;;5026214;28;20952;-90
2023/10/25 03:31:29;;;;;;;1.38;1.35;;;9.60;99.90;;;;;;5024768;28;20059;-90
2023/10/25 03:33:55;;;;;;;1.42;1.38;;;9.60;99.90;;;;;;5041118;28;20067;-93
2023/10/25 03:36:21;;;;;;;1.20;1.20;;;9.60;99.90;;;;;;5024315;28;20513;-90
2023/10/25 03:38:46;;;;;;;1.13;1.13;;;9.80;99.90;;;;;;5020379;28;20382;-94
2023/10/25 03:41:12;;;;;;;1.30;1.30;;;9.90;99.90;;;;;;5041000;28;20082;-93
2023/10/25 03:43:38;;;;;;;1.38;1.35;;;9.60;99.90;;;;;;5044531;28;20571;-92
2023/10/25 03:46:05;;;;;;;1.55;1.45;;;9.50;99.90;;;;;;5030700;28;20079;-93
2023/10/25 03:48:32;;;;;;;1.33;1.30;;;9.50;99.90;;;;;;5027521;28;20043;-94
2023/10/25 03:50:58;;;;;;;1.35;1.33;;;9.70;99.90;;;;;;5028645;28;20039;-92
2023/10/25 03:53:24;;;;;;;1.55;1.45;;;9.70;99.90;;;;;;5044363;28;20056;-91
2023/10/25 03:55:57;;;;;;;1.30;1.30;;;9.60;99.90;;;;;;5039817;28;20513;-91
2023/10/25 03:58:24;;;;;;;1.42;1.38;;;9.50;99.90;;;;;;5022215;28;20052;-92
2023/10/25 04:01:01;;;;;;;1.20;1.20;;;9.50;99.90;;;;;;5052234;28;20049;-91
2023/10/25 04:03:27;;;;;;;1.30;1.30;;;9.60;99.90;;;;;;5019231;28;20040;-91
2023/10/25 04:05:53;;;;;;;1.20;1.20;;;9.50;99.90;;;;;;5043699;28;20045;-92
2023/10/25 04:08:19;;;;;;;1.20;1.20;;;9.20;99.90;;;;;;5041907;28;20048;-92
2023/10/25 04:10:51;;;;;;;1.30;1.30;;;9.40;99.90;;;;;;5041274;28;20048;-92
2023/10/25 04:13:18;;;;;;;1.20;1.20;;;9.20;99.90;;;;;;5030233;28;20043;-90
2023/10/25 04:16:10;;;;;;;1.10;1.10;;;9.30;99.90;;;;;;5052994;28;20044;-88
2023/10/25 04:18:39;;;;;;;1.20;1.20;;;9.20;99.90;;;;;;5035550;28;20517;-92
2023/10/25 04:21:09;;;;;;;1.27;1.27;;;9.40;99.90;;;;;;5028578;28;20044;-91
2023/10/25 04:23:35;;;;;;;1.20;1.20;;;9.20;99.90;;;;;;5028316;28;20037;-92
2023/10/25 04:26:09;;;;;;;1.30;1.30;;;9.40;99.90;;;;;;5043032;28;20482;-94
2023/10/25 04:28:36;;;;;;;1.50;1.40;;;9.40;99.90;;;;;;5057339;28;20563;-92
2023/10/25 04:31:01;;;;;;;1.27;1.27;;;9.20;99.90;;;;;;5019761;28;20045;-93
2023/10/25 04:33:28;;;;;;;1.20;1.20;;;9.20;99.90;;;;;;5040113;28;20443;-93
2023/10/25 04:35:53;;;;;;;1.30;1.30;;;9.20;99.90;;;;;;5021054;28;20048;-94
2023/10/25 04:38:19;;;;;;;1.20;1.20;;;9.30;99.90;;;;;;5039897;28;20044;-91
2023/10/25 04:40:45;;;;;;;1.60;1.50;;;9.20;99.90;;;;;;5035000;28;20044;-93
2023/10/25 04:43:11;;;;;;;1.30;1.30;;;9.20;99.90;;;;;;5028730;28;20071;-91
2023/10/25 04:45:37;;;;;;;1.20;1.20;;;9.50;99.90;;;;;;5023771;28;20032;-92
2023/10/25 04:48:03;;;;;;;1.15;1.15;;;9.40;99.90;;;;;;5027110;28;20049;-91
2023/10/25 04:50:34;;;;;;;1.20;1.20;;;9.20;99.90;;;;;;5042789;28;20489;-92
2023/10/25 04:53:03;;;;;;;1.30;1.30;;;9.20;99.90;;;;;;5025294;28;20036;-93
2023/10/25 04:55:30;;;;;;;1.25;1.25;;;9.50;99.90;;;;;;5022107;28;20128;-94
2023/10/25 04:57:57;;;;;;;1.25;1.25;;;9.50;99.90;;;;;;5021109;28;20612;-94
2023/10/25 05:00:23;;;;;;;1.33;1.33;;;9.50;99.90;;;;;;5036982;28;20051;-91
2023/10/25 05:02:48;;;;;;;1.30;1.30;;;9.40;99.90;;;;;;5021291;28;20678;-89
2023/10/25 05:05:14;;;;;;;1.30;1.30;;;9.20;99.90;;;;;;5039474;28;20047;-91
2023/10/25 05:07:47;;;;;;;1.20;1.20;;;9.20;99.90;;;;;;5018290;28;20105;-90
2023/10/25 05:10:13;;;;;;;1.30;1.30;;;8.80;99.90;;;;;;5038186;28;20647;-90
2023/10/25 05:12:47;;;;;;;1.25;1.25;;;8.90;99.90;;;;;;5049477;28;20051;-92
2023/10/25 05:15:15;;;;;;;1.15;1.15;;;9.30;99.90;;;;;;5041524;28;20048;-92
2023/10/25 05:17:45;;;;;;;1.20;1.20;;;9.20;99.90;;;;;;5045380;28;20041;-91
2023/10/25 05:20:12;;;;;;;1.10;1.10;;;9.50;99.90;;;;;;5023734;28;20051;-92
2023/10/25 05:22:42;;;;;;;1.15;1.15;;;9.20;99.90;;;;;;5022688;28;20384;-93
2023/10/25 05:25:09;;;;;;;1.20;1.20;;;9.20;99.90;;;;;;5050912;28;20072;-92
2023/10/25 05:27:36;;;;;;;1.20;1.20;;;9.60;99.90;;;;;;5024712;28;20452;-92
2023/10/25 05:30:03;;;;;;;1.13;1.13;;;9.30;99.90;;;;;;5036242;28;20072;-93
2023/10/25 05:32:35;;;;;;;1.20;1.20;;;9.40;99.90;;;;;;5057712;28;20056;-90
2023/10/25 05:35:02;;;;;;;1.27;1.27;;;9.20;99.90;;;;;;5029781;28;20087;-90
2023/10/25 05:37:29;;;;;;;1.20;1.20;;;9.30;99.90;;;;;;5018132;28;20048;-89
2023/10/25 05:39:55;;;;;;;1.20;1.20;;;9.00;99.90;;;;;;5019735;28;20687;-88
2023/10/25 05:42:21;;;;;;;1.30;1.30;;;8.90;99.90;;;;;;5033787;28;20041;-88
2023/10/25 05:44:48;;;;;;;1.20;1.20;;;8.60;99.90;;;;;;5034915;28;20106;-89
2023/10/25 05:47:14;;;;;;;1.20;1.20;;;8.50;99.90;;;;;;5036466;28;20065;-88
2023/10/25 05:49:41;;;;;;;1.30;1.30;;;8.80;99.90;;;;;;5020067;28;20047;-89
2023/10/25 05:52:09;;;;;;;1.10;1.10;;;8.30;99.90;;;;;;5072167;28;20045;-89
2023/10/25 05:54:35;;;;;;;1.10;1.10;;;8.20;99.90;;;;;;5016780;28;20139;-89
2023/10/25 05:57:03;;;;;;;1.10;1.10;;;8.20;99.90;;;;;;5036653;28;20051;-89
2023/10/25 05:59:29;;;;;;;1.02;1.02;;;8.20;99.90;;;;;;5021826;28;20495;-89
2023/10/25 06:02:14;;;;;;;1.10;1.10;;;8.10;99.90;;;;;;5019446;28;20083;-89
2023/10/25 06:04:42;;;;;;;1.20;1.20;;;8.00;99.90;;;;;;5051890;28;20261;-89
2023/10/25 06:07:11;;;;;;;1.25;1.25;;;7.90;99.90;;;;;;5039679;28;20045;-88
2023/10/25 06:09:38;;;;;;;1.40;1.35;;;8.20;99.90;;;;;;5039035;28;20132;-90
2023/10/25 06:12:04;;;;;;;1.30;1.30;;;8.10;99.90;;;;;;5038958;28;20053;-87
2023/10/25 06:14:31;;;;;;;1.40;1.35;;;8.50;99.90;;;;;;5043008;28;20700;-89
2023/10/25 06:17:00;;;;;;;1.30;1.30;;;8.60;99.90;;;;;;5053298;28;20091;-89
2023/10/25 06:19:35;;;;;;;1.30;1.30;;;8.70;99.90;;;;;;5019758;28;20601;-87
2023/10/25 06:22:00;;;;;;;1.38;1.35;;;8.80;99.90;;;;;;5021971;28;20045;-88
2023/10/25 06:24:26;;;;;;;1.25;1.25;;;8.50;99.90;;;;;;5039231;28;20059;-90
2023/10/25 06:26:52;;;;;;;1.20;1.20;;;8.90;99.90;;;;;;5039348;28;20044;-90
2023/10/25 06:29:17;;;;;;;1.23;1.23;;;8.50;99.90;;;;;;5072995;28;20048;-87
2023/10/25 06:31:50;;;;;;;1.30;1.30;;;8.60;99.90;;;;;;5059526;28;20042;-88
2023/10/25 06:34:17;;;;;;;1.20;1.20;;;8.60;99.90;;;;;;5039241;28;20060;-89
2023/10/25 06:36:43;;;;;;;1.30;1.30;;;8.50;99.90;;;;;;5043196;28;20353;-88
2023/10/25 06:39:09;;;;;;;1.30;1.30;;;9.10;99.90;;;;;;5033657;28;20569;-89
2023/10/25 06:41:38;;;;;;;1.27;1.27;;;8.70;99.90;;;;;;5035892;28;20127;-90
2023/10/25 06:44:05;;;;;;;1.17;1.17;;;8.80;99.90;;;;;;5036698;28;20651;-89
2023/10/25 06:46:31;;;;;;;1.20;1.20;;;8.80;99.90;;;;;;5041859;28;20051;-86
2023/10/25 06:48:58;;;;;;;1.20;1.20;;;9.30;99.90;;;;;;5040515;28;20045;-90
2023/10/25 06:51:25;;;;;;;1.30;1.30;;;9.20;99.90;;;;;;5027100;28;20045;-87
2023/10/25 06:53:52;;;;;;;1.10;1.10;;;9.30;99.90;;;;;;5034800;28;20128;-86
2023/10/25 06:56:18;;;;;;;1.30;1.30;;;9.40;99.90;;;;;;5039482;28;20045;-89
2023/10/25 06:58:44;;;;;;;1.10;1.10;;;9.40;99.90;;;;;;5043813;28;20051;-89
2023/10/25 07:01:12;;;;;;;1.20;1.20;;;9.10;99.90;;;;;;5038254;28;20072;-91
2023/10/25 07:03:44;;;;;;;1.20;1.20;;;9.40;99.90;;;;;;5044026;28;20105;-90
2023/10/25 07:06:11;;;;;;;1.30;1.30;;;9.60;99.90;;;;;;5038908;28;20055;-92
2023/10/25 07:08:37;;;;;;;1.20;1.20;;;9.30;99.90;;;;;;5037035;28;20624;-90
2023/10/25 07:11:12;;;;;;;1.20;1.20;;;9.40;99.90;;;;;;5026030;28;20053;-88
2023/10/25 07:13:38;;;;;;;1.23;1.23;;;9.80;99.90;;;;;;5018980;28;20043;-90
2023/10/25 07:16:04;;;;;;;1.20;1.20;;;9.60;99.90;;;;;;5036750;28;20174;-90
2023/10/25 07:18:36;;;;;;;1.20;1.20;;;9.60;99.90;;;;;;5040725;28;20048;-88
2023/10/25 07:21:02;;;;;;;1.20;1.20;;;9.90;99.90;;;;;;5037781;28;20517;-92
2023/10/25 07:23:27;;;;;;;1.20;1.20;;;9.90;99.90;;;;;;5020560;28;20383;-88
2023/10/25 07:25:53;;;;;;;1.33;1.33;;;9.70;99.90;;;;;;5033870;28;20052;-88
2023/10/25 07:28:21;;;;;;;1.35;1.35;;;9.80;99.90;;;;;;5038975;28;20025;-86
2023/10/25 07:30:47;;;;;;;1.30;1.30;;;9.90;99.90;;;;;;5071846;28;20182;-90
2023/10/25 07:33:13;;;;;;;1.50;1.40;;;9.80;99.90;;;;;;5034769;28;20127;-89
2023/10/25 07:35:38;;;;;;;1.40;1.40;;;10.20;99.90;;;;;;5014742;28;20103;-89
2023/10/25 07:38:04;;;;;;;1.30;1.30;;;9.90;99.90;;;;;;5037028;28;20053;-88
2023/10/25 07:40:30;;;;;;;1.38;1.38;;;10.10;99.90;;;;;;5036329;28;20048;-92
2023/10/25 07:42:55;;;;;;;1.60;1.50;;;10.00;99.90;;;;;;5024021;28;20141;-89
2023/10/25 07:45:21;;;;;;;1.48;1.40;;;10.30;99.90;;;;;;5011308;28;20071;-87
2023/10/25 07:47:47;;;;;;;1.80;1.70;;;10.10;99.90;;;;;;5039149;28;20502;-89
2023/10/25 07:50:18;;;;;;;1.50;1.40;;;10.10;99.90;;;;;;5035937;28;20128;-87
2023/10/25 07:52:43;;;;;;;1.58;1.48;;;10.40;99.90;;;;;;5033745;28;20087;-87
2023/10/25 07:55:09;;;;;;;1.63;1.52;;;10.30;99.90;;;;;;5034350;28;20068;-89
2023/10/25 07:57:35;;;;;;;1.50;1.40;;;10.30;99.90;;;;;;5026130;28;20045;-90
2023/10/25 08:00:01;;;;;;;1.50;1.40;;;10.30;99.90;;;;;;5022619;28;20055;-91
2023/10/25 08:02:26;;;;;;;1.52;1.42;;;10.50;99.90;;;;;;5064373;28;20048;-88
2023/10/25 08:04:52;;;;;;;1.50;1.40;;;10.50;99.90;;;;;;5053621;28;20032;-88
2023/10/25 08:07:18;;;;;;;1.30;1.30;;;10.50;99.90;;;;;;5034254;28;20360;-90
2023/10/25 08:09:46;;;;;;;1.38;1.35;;;10.60;99.90;;;;;;5029290;28;20509;-89
2023/10/25 08:12:12;;;;;;;1.52;1.42;;;10.80;99.90;;;;;;5021143;28;20379;-90
2023/10/25 08:14:37;;;;;;;1.80;1.70;;;10.90;99.90;;;;;;5047555;28;20113;-90
2023/10/25 08:17:03;;;;;;;1.70;1.60;;;10.70;99.90;;;;;;5036970;28;20048;-89
2023/10/25 08:19:30;;;;;;;1.55;1.45;;;11.00;99.90;;;;;;5035024;28;20044;-89
2023/10/25 08:21:56;;;;;;;1.70;1.60;;;11.10;99.90;;;;;;5033967;28;20056;-91
2023/10/25 08:24:23;;;;;;;1.77;1.67;;;11.10;99.90;;;;;;5039647;28;20744;-90
2023/10/25 08:26:49;;;;;;;1.55;1.45;;;11.20;99.90;;;;;;5020854;28;20131;-86
2023/10/25 08:29:15;;;;;;;1.58;1.48;;;11.10;99.90;;;;;;5043983;28;20044;-93
2023/10/25 08:31:50;;;;;;;1.63;1.52;;;11.30;99.90;;;;;;5026265;28;20139;-93
2023/10/25 08:34:16;;;;;;;1.55;1.45;;;11.20;99.90;;;;;;5024141;28;20040;-92
2023/10/25 08:36:44;;;;;;;1.38;1.38;;;11.30;99.90;;;;;;5019570;28;20036;-95
2023/10/25 08:39:10;;;;;;;1.80;1.70;;;11.40;99.90;;;;;;5024880;28;20055;-90
2023/10/25 08:41:39;;;;;;;1.65;1.55;;;11.60;99.90;;;;;;5037059;28;20625;-91
2023/10/25 08:44:05;;;;;;;1.52;1.42;;;11.50;99.90;;;;;;5019562;28;20052;-90
2023/10/25 08:46:33;;;;;;;1.35;1.35;;;11.60;99.90;;;;;;5034837;28;20045;-90
2023/10/25 08:48:59;;;;;;;1.50;1.40;;;11.60;99.90;;;;;;5047550;28;20032;-87
2023/10/25 08:51:25;;;;;;;1.75;1.65;;;11.70;99.90;;;;;;5015882;28;20389;-86
2023/10/25 08:53:52;;;;;;;1.27;1.27;;;11.70;99.90;;;;;;5034827;28;20254;-90
2023/10/25 08:56:18;;;;;;;1.67;1.58;;;11.70;99.90;;;;;;5024528;28;20833;-91
2023/10/25 08:58:44;;;;;;;1.60;1.50;;;11.80;99.90;;;;;;5022005;28;20059;-90
2023/10/25 09:01:10;;;;;;;1.60;1.50;;;11.90;99.90;;;;;;5020547;28;20041;-89
2023/10/25 09:03:41;;;;;;;1.60;1.50;;;11.80;99.90;;;;;;5032960;28;20036;-88
2023/10/25 09:06:22;;;;;;;1.48;1.40;;;12.00;99.90;;;;;;5040595;28;20047;-96
2023/10/25 09:08:57;;;;;;;1.63;1.52;;;12.00;99.90;;;;;;5052661;28;20055;-89
2023/10/25 09:11:23;;;;;;;1.58;1.48;;;11.90;99.90;;;;;;5017428;28;20041;-89
2023/10/25 09:13:55;;;;;;;1.30;1.30;;;12.10;99.90;;;;;;5035811;28;20387;-93
2023/10/25 09:16:27;;;;;;;1.63;1.52;;;12.10;99.90;;;;;;5022057;28;20033;-92
2023/10/25 09:18:52;;;;;;;1.73;1.63;;;12.10;99.90;;;;;;5018194;28;20923;-85
2023/10/25 09:21:26;;;;;;;2.00;1.90;;;12.10;99.90;;;;;;5036150;28;20116;-87
2023/10/25 09:23:59;;;;;;;1.52;1.42;;;12.10;99.90;;;;;;5016680;28;20492;-91
2023/10/25 09:26:31;;;;;;;1.65;1.55;;;12.20;99.90;;;;;;5018343;28;20039;-89
2023/10/25 09:28:57;;;;;;;1.67;1.58;;;12.10;99.90;;;;;;5033052;28;20052;-88
2023/10/25 09:31:29;;;;;;;1.55;1.45;;;12.30;99.90;;;;;;5027232;28;20056;-87
2023/10/25 09:33:59;;;;;;;1.30;1.30;;;12.20;99.90;;;;;;5029685;28;20044;-87
2023/10/25 09:36:26;;;;;;;1.63;1.52;;;12.30;99.90;;;;;;5028223;28;20041;-86
2023/10/25 09:38:53;;;;;;;1.73;1.63;;;12.40;99.90;;;;;;5018357;28;20053;-89
2023/10/25 09:41:19;;;;;;;1.35;1.35;;;12.40;99.90;;;;;;5035729;28;20067;-88
2023/10/25 09:43:51;;;;;;;1.63;1.52;;;12.50;99.90;;;;;;5039243;28;20056;-89
2023/10/25 09:46:25;;;;;;;1.42;1.38;;;12.40;99.90;;;;;;5018789;28;20398;-89
2023/10/25 09:49:06;;;;;;;1.58;1.48;;;12.50;99.90;;;;;;5019000;28;20036;-89
2023/10/25 09:51:41;;;;;;;1.63;1.52;;;12.60;99.90;;;;;;5042350;28;20048;-89
2023/10/25 09:54:13;;;;;;;1.65;1.55;;;12.70;99.90;;;;;;5021701;28;20040;-88
2023/10/25 09:56:40;;;;;;;1.27;1.27;;;12.60;99.90;;;;;;5039635;28;20671;-87
2023/10/25 09:59:11;;;;;;;1.65;1.55;;;12.60;99.90;;;;;;5038785;28;20045;-87
2023/10/25 10:01:38;;;;;;;1.27;1.27;;;12.60;99.90;;;;;;5031598;28;20204;-94
2023/10/25 10:04:33;;;;;;;1.50;1.42;;;12.70;99.90;;;;;;5019442;28;20052;-90
2023/10/25 10:07:11;;;;;;;1.27;1.27;;;12.70;99.90;;;;;;5013886;28;20649;-87
2023/10/25 10:09:58;;;;;;;1.10;1.10;;;12.80;99.90;;;;;;5037601;28;20044;-89
2023/10/25 10:12:25;;;;;;;1.35;1.35;;;12.80;99.90;;;;;;5062822;28;20056;-85
2023/10/25 10:14:52;;;;;;;1.10;1.10;;;12.80;99.90;;;;;;5044828;28;20068;-90
2023/10/25 10:17:18;;;;;;;1.42;1.38;;;12.80;99.90;;;;;;5043110;28;20083;-89
2023/10/25 10:19:50;;;;;;;1.60;1.50;;;12.80;99.90;;;;;;5042939;28;20146;-90
2023/10/25 10:22:18;;;;;;;1.30;1.30;;;12.80;99.90;;;;;;5042863;28;20051;-89
2023/10/25 10:24:58;;;;;;;1.70;1.60;;;12.90;99.90;;;;;;5038379;28;20798;-89
2023/10/25 10:27:42;;;;;;;1.55;1.45;;;13.00;99.90;;;;;;5048026;28;20483;-89
2023/10/25 10:30:23;;;;;;;;;;;12.90;99.90;;;;;;5021042;28;21576;-92
2023/10/25 10:32:55;;;;;;;1.70;1.60;;;12.90;99.90;;;;;;5049828;28;19928;-90
2023/10/25 10:35:23;;;;;;;1.38;1.33;;;13.10;99.90;;;;;;5033629;28;20044;-86
2023/10/25 10:37:56;;;;;;;1.75;1.65;;;13.10;99.90;;;;;;5031956;28;20052;-90
2023/10/25 10:40:22;;;;;;;1.87;1.77;;;12.80;99.90;;;;;;5036388;28;20049;-88
2023/10/25 10:42:48;;;;;;;1.40;1.35;;;12.90;99.90;;;;;;5039070;28;20048;-92
2023/10/25 10:45:16;;;;;;;1.70;1.60;;;13.00;99.90;;;;;;5036696;28;20832;-89
2023/10/25 10:48:11;;;;;;;1.33;1.30;;;13.00;99.90;;;;;;5023992;28;20045;-88
2023/10/25 10:50:40;;;;;;;1.30;1.30;;;13.00;99.90;;;;;;5041640;28;20033;-90
2023/10/25 10:53:06;;;;;;;1.25;1.25;;;13.10;99.90;;;;;;5014625;28;20124;-86
2023/10/25 10:55:32;;;;;;;1.42;1.35;;;13.10;99.90;;;;;;5031077;28;20065;-89
2023/10/25 10:57:58;;;;;;;1.50;1.42;;;13.10;99.90;;;;;;5051950;28;20399;-90
2023/10/25 11:00:25;;;;;;;1.48;1.40;;;13.10;99.90;;;;;;5013638;28;20041;-91
2023/10/25 11:02:52;;;;;;;1.48;1.40;;;13.10;99.90;;;;;;5022374;28;20078;-88
2023/10/25 11:05:22;;;;;;;1.48;1.42;;;13.10;99.90;;;;;;5034661;28;20055;-88
2023/10/25 11:07:49;;;;;;;1.60;1.50;;;13.10;99.90;;;;;;5037740;28;20063;-89
2023/10/25 11:10:15;;;;;;;1.42;1.38;;;13.10;99.90;;;;;;5034129;28;20040;-90
2023/10/25 11:12:43;;;;;;;1.38;1.35;;;13.10;99.90;;;;;;5021324;28;20086;-83
2023/10/25 11:15:10;;;;;;;1.65;1.55;;;13.10;99.90;;;;;;5031947;28;20049;-86
2023/10/25 11:17:37;;;;;;;1.50;1.42;;;13.10;99.90;;;;;;5039888;28;20044;-89
2023/10/25 11:20:03;;;;;;;1.52;1.42;;;13.10;99.90;;;;;;5039988;28;20049;-88
2023/10/25 11:22:31;;;;;;;1.25;1.25;;;13.00;99.90;;;;;;5039944;28;20041;-91
2023/10/25 11:24:59;;;;;;;1.75;1.65;;;13.00;99.90;;;;;;5035041;28;20048;-90
2023/10/25 11:27:32;;;;;;;1.90;1.80;;;13.00;99.90;;;;;;5050517;28;20053;-88
2023/10/25 11:30:00;;;;;;;2.10;2.00;;;12.90;99.90;;;;;;5016308;28;20607;-90
2023/10/25 11:32:28;;;;;;;1.75;1.65;;;12.90;99.90;;;;;;5019699;28;20135;-88
2023/10/25 11:34:56;;;;;;;1.80;1.70;;;12.90;99.90;;;;;;5028476;28;20052;-88
2023/10/25 11:37:22;;;;;;;1.30;1.30;;;12.80;99.90;;;;;;5034635;28;20082;-88
2023/10/25 11:39:58;;;;;;;1.80;1.70;;;12.80;99.90;;;;;;5033049;28;20802;-88
2023/10/25 11:42:35;;;;;;;1.23;1.23;;;12.80;99.90;;;;;;5020670;28;20048;-86
2023/10/25 11:45:03;;;;;;;1.42;1.38;;;12.80;99.90;;;;;;5037386;28;20355;-87
2023/10/25 11:47:32;;;;;;;1.45;1.40;;;12.70;99.90;;;;;;5033843;28;20049;-89
2023/10/25 11:49:59;;;;;;;1.60;1.50;;;12.80;99.90;;;;;;5035893;28;20123;-87
2023/10/25 11:52:29;;;;;;;1.15;1.15;;;12.70;99.90;;;;;;5020213;28;20131;-88
2023/10/25 11:54:56;;;;;;;1.50;1.42;;;12.80;99.90;;;;;;5034176;28;20051;-88
2023/10/25 11:57:31;;;;;;;1.33;1.33;;;12.80;99.90;;;;;;5035487;28;20044;-88
2023/10/25 11:59:57;;;;;;;1.40;1.35;;;12.80;99.90;;;;;;5017471;28;20037;-88
2023/10/25 12:02:24;;;;;;;1.25;1.25;;;12.90;99.90;;;;;;5015628;28;20674;-88
2023/10/25 12:04:51;;;;;;;1.55;1.45;;;12.90;99.90;;;;;;5063551;28;20045;-89
2023/10/25 12:07:17;;;;;;;1.27;1.27;;;12.90;99.90;;;;;;5024057;28;20045;-87
2023/10/25 12:09:45;;;;;;;1.42;1.38;;;12.90;99.90;;;;;;5030633;28;20517;-90
2023/10/25 12:12:11;;;;;;;1.42;1.35;;;12.90;99.90;;;;;;5035542;28;20410;-87
2023/10/25 12:14:37;;;;;;;1.38;1.33;;;13.10;99.90;;;;;;5044686;28;20049;-88
2023/10/25 12:17:04;;;;;;;1.20;1.20;;;13.00;99.90;;;;;;5020016;28;20670;-87
2023/10/25 12:19:30;;;;;;;1.30;1.27;;;13.20;99.90;;;;;;5032857;28;20041;-87
2023/10/25 12:21:57;;;;;;;1.52;1.45;;;13.20;99.90;;;;;;5031288;28;20049;-88
2023/10/25 12:24:25;;;;;;;1.23;1.23;;;13.10;99.90;;;;;;5014528;28;20056;-87
2023/10/25 12:26:51;;;;;;;1.27;1.27;;;13.20;99.90;;;;;;5025869;28;20041;-87
2023/10/25 12:29:17;;;;;;;1.27;1.27;;;13.30;99.90;;;;;;5033502;28;20052;-91
2023/10/25 12:31:43;;;;;;;1.23;1.23;;;13.30;99.90;;;;;;5028540;28;20067;-87
2023/10/25 12:34:09;;;;;;;1.17;1.17;;;13.30;99.90;;;;;;5034573;28;20501;-87
2023/10/25 12:36:35;;;;;;;1.38;1.33;;;13.40;99.90;;;;;;5033385;28;20038;-86
2023/10/25 12:39:00;;;;;;;1.63;1.52;;;13.40;99.90;;;;;;5019308;28;20478;-90
2023/10/25 12:41:26;;;;;;;1.42;1.35;;;13.40;99.90;;;;;;5051899;28;20076;-92
2023/10/25 12:43:52;;;;;;;1.45;1.38;;;13.50;99.90;;;;;;5019762;28;20048;-88
2023/10/25 12:46:17;;;;;;;1.33;1.33;;;13.40;99.90;;;;;;5028704;28;20514;-89
2023/10/25 12:48:43;;;;;;;1.27;1.27;;;13.50;99.90;;;;;;5037501;28;20076;-88
2023/10/25 12:51:09;;;;;;;1.38;1.33;;;13.50;99.90;;;;;;5014085;28;20167;-90
2023/10/25 12:53:36;;;;;;;1.38;1.35;;;13.50;99.90;;;;;;5035963;28;20114;-87
2023/10/25 12:56:02;;;;;;;1.58;1.48;;;13.60;99.90;;;;;;5030074;28;20055;-90